Time;durP1;ratioP1;P1;durP2;ratioP2;P2;SDS_P1;SDS_P2;PMS_P1;PMS_P2;Temp;Humidity;BMP_temperature;BMP_pressure;BME280_temperature;BME280_humidity;BME280_pressure;Samples;Min_cycle;Max_cycle;Signal;HPM_P1;HPM_P2
2021/01/27 00:12:23;;;;;;;4.68;3.55;;;26.30;84.10;;;;;;6275040;22;20015;-90
2021/01/27 00:25:09;;;;;;;7.45;4.20;;;26.20;84.80;;;;;;6052981;23;20204;-90
2021/01/27 00:28:13;;;;;;;;;;;;;;;;;;;;;
2021/01/27 00:31:26;;;;;;;10.13;4.72;;;26.20;84.20;;;;;;6050649;23;20225;-91
2021/01/27 00:34:22;;;;;;;;;;;;;;;;;;;;;
2021/01/27 00:37:09;;;;;;;11.65;5.30;;;26.20;84.80;;;;;;5994028;23;20008;-94
2021/01/27 00:40:36;;;;;;;;;;;;;;;;;;;;;
2021/01/27 00:43:20;;;;;;;10.18;4.47;;;26.10;84.60;;;;;;5988875;24;20012;-90
2021/01/27 00:45:53;;;;;;;8.02;3.88;;;26.20;84.20;;;;;;6038330;23;20059;-89
2021/01/27 00:48:26;;;;;;;;;;;26.20;84.20;;;;;;6084920;23;20003;-93
2021/01/27 00:50:53;;;;;;;6.90;4.80;;;26.20;84.40;;;;;;6034448;23;19906;-92
2021/01/27 00:53:47;;;;;;;13.38;4.43;;;26.20;84.50;;;;;;6064790;23;20361;-91
2021/01/27 00:57:14;;;;;;;9.75;4.07;;;26.20;84.40;;;;;;6146533;23;20020;-92
2021/01/27 01:00:04;;;;;;;7.25;3.58;;;26.20;84.10;;;;;;6127746;23;20060;-93
2021/01/27 01:06:39;;;;;;;7.57;3.58;;;26.20;84.20;;;;;;6056877;23;20030;-94
2021/01/27 01:09:40;;;;;;;6.07;3.70;;;26.20;84.20;;;;;;6052633;23;19998;-91
2021/01/27 01:12:21;;;;;;;10.68;5.65;;;26.30;84.20;;;;;;6054285;23;20007;-94
2021/01/27 01:15:03;;;;;;;13.20;5.90;;;26.20;84.20;;;;;;6138203;23;20010;-92
2021/01/27 01:17:33;;;;;;;10.13;4.25;;;26.20;83.90;;;;;;6118867;23;20051;-91
2021/01/27 01:20:23;;;;;;;9.52;4.57;;;26.30;83.40;;;;;;6170208;23;20055;-92
2021/01/27 01:23:40;;;;;;;9.35;5.60;;;26.30;83.10;;;;;;6196978;23;20036;-91
2021/01/27 01:26:43;;;;;;;10.90;4.57;;;26.30;83.40;;;;;;6190658;23;19997;-91
2021/01/27 01:32:27;;;;;;;7.57;4.30;;;26.30;82.70;;;;;;6292855;22;20013;-90
2021/01/27 01:38:32;;;;;;;8.73;4.72;;;26.20;82.60;;;;;;6198172;22;20069;-90
2021/01/27 01:42:15;;;;;;;6.53;4.22;;;26.20;82.90;;;;;;6190840;23;20001;-93
2021/01/27 01:47:19;;;;;;;7.53;4.05;;;26.20;81.70;;;;;;6257956;22;20067;-89
2021/01/27 01:53:44;;;;;;;7.80;4.25;;;26.20;81.30;;;;;;6265640;23;20035;-89
2021/01/27 01:56:19;;;;;;;7.63;3.30;;;26.20;80.70;;;;;;6235429;23;20004;-89
2021/01/27 01:58:54;;;;;;;11.35;3.25;;;26.20;80.70;;;;;;6204047;23;20201;-92
2021/01/27 02:17:03;;;;;;;6.28;3.17;;;25.90;80.40;;;;;;6319455;22;19999;-89
2021/01/27 02:20:28;;;;;;;5.80;2.90;;;25.90;80.40;;;;;;6268651;22;20039;-90
2021/01/27 02:26:38;;;;;;;7.95;3.17;;;25.90;80.10;;;;;;6329790;22;20021;-90
2021/01/27 02:29:38;;;;;;;5.45;2.95;;;25.90;80.40;;;;;;6297299;22;20003;-90
2021/01/27 02:32:43;;;;;;;5.93;3.50;;;25.90;79.60;;;;;;6295120;22;20291;-88
2021/01/27 02:59:11;;;;;;;6.68;2.72;;;25.50;79.80;;;;;;6346460;22;20054;-91
2021/01/27 03:01:53;;;;;;;7.40;2.50;;;25.50;80.10;;;;;;6238767;23;20022;-91
2021/01/27 03:05:12;;;;;;;4.97;2.70;;;25.50;79.90;;;;;;6362766;22;19994;-93
2021/01/27 03:07:41;;;;;;;9.23;3.20;;;25.60;79.30;;;;;;6171488;23;19989;-90
2021/01/27 03:10:54;;;;;;;7.78;3.20;;;25.50;79.40;;;;;;6182524;23;20016;-87
2021/01/27 03:16:38;;;;;;;5.20;2.53;;;25.40;79.80;;;;;;6385639;22;20002;-91
2021/01/27 03:19:56;;;;;;;6.20;3.00;;;25.40;79.50;;;;;;6359647;22;19998;-91
2021/01/27 03:22:58;;;;;;;4.32;2.67;;;25.40;78.80;;;;;;6385885;22;19994;-93
2021/01/27 03:26:05;;;;;;;9.70;3.73;;;25.40;79.10;;;;;;6386459;22;20279;-91
2021/01/27 03:28:54;;;;;;;7.85;3.90;;;25.30;79.40;;;;;;6361571;22;19986;-91
2021/01/27 03:31:21;;;;;;;9.02;3.67;;;25.30;79.20;;;;;;6359125;22;20065;-92
2021/01/27 03:34:21;;;;;;;6.30;3.22;;;25.20;79.20;;;;;;6357223;22;20013;-92
2021/01/27 03:37:26;;;;;;;7.90;3.30;;;25.20;79.50;;;;;;6358187;22;20006;-92
2021/01/27 03:40:11;;;;;;;5.05;3.10;;;25.10;79.80;;;;;;6258921;23;20003;-93
2021/01/27 03:43:26;;;;;;;4.80;2.85;;;25.00;80.00;;;;;;6259504;22;20067;-92
2021/01/27 03:49:14;;;;;;;6.90;3.20;;;25.00;80.10;;;;;;6381307;22;20204;-93
2021/01/27 03:52:27;;;;;;;6.78;3.20;;;24.90;80.10;;;;;;6384530;22;20055;-93
2021/01/27 03:55:25;;;;;;;5.45;3.30;;;24.90;80.40;;;;;;6236798;23;20004;-93
2021/01/27 03:58:21;;;;;;;9.07;3.50;;;24.80;80.60;;;;;;6280531;22;20055;-94
2021/01/27 04:01:03;;;;;;;8.65;3.53;;;24.70;81.40;;;;;;6361367;22;19998;-94
2021/01/27 04:03:33;;;;;;;5.47;3.50;;;24.70;80.80;;;;;;6362409;22;19994;-93
2021/01/27 04:06:01;;;;;;;6.30;3.15;;;24.70;81.20;;;;;;6358608;22;20001;-92
2021/01/27 04:08:30;;;;;;;7.97;3.10;;;24.70;81.20;;;;;;6384795;22;19982;-92
2021/01/27 04:11:00;;;;;;;6.35;2.88;;;24.70;81.30;;;;;;6362644;22;20006;-92
2021/01/27 04:13:30;;;;;;;5.03;3.13;;;24.60;81.20;;;;;;6388840;22;19989;-91
2021/01/27 04:15:58;;;;;;;8.95;3.08;;;24.60;81.30;;;;;;6355936;22;20174;-92
2021/01/27 04:18:32;;;;;;;11.23;2.90;;;24.60;81.20;;;;;;6356147;22;20292;-92
2021/01/27 04:21:44;;;;;;;6.38;3.20;;;24.60;81.50;;;;;;6383635;22;19998;-92
2021/01/27 04:24:13;;;;;;;8.68;3.53;;;24.50;81.60;;;;;;6318005;22;20082;-92
2021/01/27 04:26:40;;;;;;;6.78;3.08;;;24.60;81.80;;;;;;6321915;22;20021;-92
2021/01/27 04:29:06;;;;;;;4.43;2.58;;;24.50;82.20;;;;;;6291088;22;20027;-92
2021/01/27 04:31:33;;;;;;;4.30;2.60;;;24.50;81.60;;;;;;6318245;22;20036;-93
2021/01/27 04:34:00;;;;;;;3.67;2.63;;;24.40;81.80;;;;;;6318422;22;20077;-93
2021/01/27 04:36:29;;;;;;;7.03;3.20;;;24.40;82.00;;;;;;6291359;22;20168;-91
2021/01/27 04:39:07;;;;;;;9.30;5.35;;;24.40;82.50;;;;;;6267258;22;19996;-92
2021/01/27 04:41:35;;;;;;;9.10;5.20;;;24.40;82.00;;;;;;6292084;22;19999;-94
2021/01/27 04:44:02;;;;;;;9.45;5.53;;;24.40;82.00;;;;;;6291494;22;20022;-93
2021/01/27 04:46:57;;;;;;;9.88;4.30;;;24.30;82.10;;;;;;6293240;22;20002;-91
2021/01/27 04:49:33;;;;;;;6.55;2.95;;;24.40;81.90;;;;;;6225858;22;20034;-91
2021/01/27 04:52:36;;;;;;;5.88;2.92;;;24.40;82.10;;;;;;6266943;22;19996;-93
2021/01/27 04:55:12;;;;;;;4.75;2.80;;;24.30;81.90;;;;;;6289364;22;20002;-92
2021/01/27 04:58:00;;;;;;;7.80;3.20;;;24.30;81.60;;;;;;6255332;23;19992;-94
2021/01/27 05:01:00;;;;;;;6.07;2.90;;;24.30;81.90;;;;;;6276961;22;19995;-92
2021/01/27 05:03:49;;;;;;;4.88;2.88;;;24.20;82.00;;;;;;6345334;22;20006;-93
2021/01/27 05:06:26;;;;;;;5.30;2.70;;;24.20;82.10;;;;;;6323927;22;20002;-94
2021/01/27 05:09:31;;;;;;;5.45;2.78;;;24.20;82.50;;;;;;6318316;22;20002;-92
2021/01/27 05:12:06;;;;;;;6.13;3.28;;;24.20;82.30;;;;;;6294712;22;19995;-93
2021/01/27 05:14:33;;;;;;;5.43;3.17;;;24.10;82.60;;;;;;6262409;22;20010;-93
2021/01/27 05:17:21;;;;;;;5.43;2.75;;;24.10;83.30;;;;;;6260207;22;19996;-94
2021/01/27 05:19:49;;;;;;;6.72;3.25;;;24.00;83.30;;;;;;6284107;22;20002;-92
2021/01/27 05:22:19;;;;;;;6.82;3.30;;;24.00;83.10;;;;;;6322839;22;19994;-92
2021/01/27 05:24:47;;;;;;;5.53;2.72;;;24.00;83.30;;;;;;6322644;22;20040;-92
2021/01/27 05:27:23;;;;;;;5.85;2.90;;;23.90;83.50;;;;;;6349641;22;19991;-93
2021/01/27 05:30:06;;;;;;;6.43;3.03;;;24.00;83.30;;;;;;6349893;22;20306;-92
2021/01/27 05:32:51;;;;;;;4.75;2.95;;;24.00;83.20;;;;;;6347906;22;19991;-91
2021/01/27 05:35:38;;;;;;;6.00;3.22;;;24.00;83.40;;;;;;6342959;22;20039;-93
2021/01/27 05:38:27;;;;;;;5.15;2.88;;;23.90;82.80;;;;;;6349915;22;19998;-93
2021/01/27 05:41:13;;;;;;;7.68;3.30;;;24.00;83.00;;;;;;6323120;22;19998;-93
2021/01/27 05:44:04;;;;;;;6.03;2.55;;;24.00;83.20;;;;;;6349956;22;20025;-91
2021/01/27 05:49:36;;;;;;;6.15;2.67;;;24.00;83.10;;;;;;6317502;22;20074;-91
2021/01/27 05:52:13;;;;;;;5.45;2.72;;;23.90;82.90;;;;;;6348263;22;20023;-92
2021/01/27 05:54:40;;;;;;;3.65;2.88;;;23.90;83.00;;;;;;6325186;22;20002;-91
2021/01/27 05:57:28;;;;;;;6.28;3.25;;;24.00;82.70;;;;;;6341480;22;20251;-91
2021/01/27 06:00:26;;;;;;;5.88;3.15;;;23.90;83.00;;;;;;6351615;22;20053;-92
2021/01/27 06:02:54;;;;;;;6.80;2.95;;;23.90;83.00;;;;;;6327104;22;19999;-93
2021/01/27 06:05:40;;;;;;;3.83;3.05;;;23.90;83.20;;;;;;6324552;22;20018;-91
2021/01/27 06:08:17;;;;;;;6.30;3.05;;;23.90;83.70;;;;;;6351701;22;20316;-93
2021/01/27 06:10:44;;;;;;;6.82;2.63;;;23.80;83.30;;;;;;6349887;22;20014;-94
2021/01/27 06:13:25;;;;;;;5.68;3.00;;;23.80;82.90;;;;;;6342708;22;20044;-93
2021/01/27 06:15:52;;;;;;;9.93;3.50;;;23.90;83.40;;;;;;6319378;22;19999;-94
2021/01/27 06:18:24;;;;;;;7.90;3.17;;;23.80;83.40;;;;;;6312164;22;19999;-93
2021/01/27 06:21:12;;;;;;;4.05;2.90;;;23.80;83.40;;;;;;6306721;22;20006;-93
2021/01/27 06:23:53;;;;;;;6.93;2.88;;;23.80;83.10;;;;;;6321992;22;19995;-91
2021/01/27 06:26:57;;;;;;;5.90;2.70;;;23.80;83.60;;;;;;6324555;22;20036;-93
2021/01/27 06:29:53;;;;;;;4.45;3.13;;;23.80;83.30;;;;;;6325047;22;20249;-93
2021/01/27 06:32:45;;;;;;;7.10;2.92;;;23.80;83.30;;;;;;6324497;22;20009;-94
2021/01/27 06:35:35;;;;;;;4.53;3.13;;;23.90;83.10;;;;;;6323968;22;20165;-93
2021/01/27 06:38:28;;;;;;;6.45;2.83;;;23.90;83.30;;;;;;6334961;22;20005;-92
2021/01/27 06:41:47;;;;;;;5.03;2.90;;;23.90;82.90;;;;;;6337123;22;19999;-93
2021/01/27 06:44:45;;;;;;;4.85;2.70;;;23.90;83.50;;;;;;6285828;22;20052;-92
2021/01/27 06:47:44;;;;;;;6.55;2.90;;;23.90;83.30;;;;;;6318728;22;20003;-93
2021/01/27 06:50:29;;;;;;;3.88;2.45;;;24.00;83.00;;;;;;6323903;22;20203;-93
2021/01/27 06:53:20;;;;;;;4.65;2.85;;;24.00;83.10;;;;;;6323853;22;19991;-93
2021/01/27 06:56:10;;;;;;;4.70;2.90;;;24.00;83.50;;;;;;6324387;22;19999;-93
2021/01/27 06:58:39;;;;;;;6.55;2.90;;;24.00;82.80;;;;;;6277235;22;20283;-93
2021/01/27 07:01:25;;;;;;;5.53;3.10;;;24.10;83.20;;;;;;6324375;22;19999;-92
2021/01/27 07:04:17;;;;;;;8.40;3.30;;;24.10;83.20;;;;;;6323563;22;20295;-93
2021/01/27 07:07:22;;;;;;;7.05;2.90;;;24.10;83.00;;;;;;6323791;22;19999;-93
2021/01/27 07:10:19;;;;;;;4.47;2.35;;;24.10;83.00;;;;;;6349741;22;19999;-93
2021/01/27 07:12:52;;;;;;;5.72;2.83;;;24.10;83.10;;;;;;6350497;22;19995;-93
2021/01/27 07:15:48;;;;;;;4.60;2.70;;;24.10;83.70;;;;;;6350059;22;20025;-93
2021/01/27 07:18:34;;;;;;;5.05;3.00;;;24.10;83.60;;;;;;6349969;22;19998;-93
2021/01/27 07:21:14;;;;;;;4.55;2.55;;;24.10;83.50;;;;;;6349906;22;20045;-94
2021/01/27 07:24:07;;;;;;;6.65;2.72;;;24.00;83.70;;;;;;6323369;22;20017;-93
2021/01/27 07:26:46;;;;;;;7.20;2.70;;;23.90;84.00;;;;;;6348964;22;19995;-92
2021/01/27 07:29:49;;;;;;;6.47;3.00;;;23.90;83.80;;;;;;6348958;22;19995;-93
2021/01/27 07:32:28;;;;;;;5.00;2.92;;;23.80;83.80;;;;;;6307400;22;20029;-91
2021/01/27 07:35:12;;;;;;;7.47;2.50;;;23.80;84.20;;;;;;6349622;22;20086;-93
2021/01/27 07:37:54;;;;;;;5.57;2.90;;;23.70;84.50;;;;;;6349767;22;20080;-93
2021/01/27 07:40:58;;;;;;;5.25;2.75;;;23.70;83.90;;;;;;6351158;22;20050;-92
2021/01/27 07:43:48;;;;;;;4.68;2.65;;;23.70;84.20;;;;;;6362195;22;20019;-92
2021/01/27 07:46:23;;;;;;;5.22;2.63;;;23.70;84.20;;;;;;6337308;22;20014;-93
2021/01/27 07:48:57;;;;;;;4.93;2.65;;;23.60;84.30;;;;;;6361860;22;20030;-92
2021/01/27 07:51:28;;;;;;;3.47;2.40;;;23.60;84.60;;;;;;6351746;22;20002;-92
2021/01/27 07:54:22;;;;;;;4.20;2.83;;;23.60;84.20;;;;;;6352621;22;19990;-94
2021/01/27 07:57:02;;;;;;;4.72;2.67;;;23.60;84.70;;;;;;6350347;22;20337;-93
2021/01/27 07:59:44;;;;;;;7.28;3.15;;;23.60;84.60;;;;;;6349321;22;20006;-94
2021/01/27 08:02:32;;;;;;;6.05;2.70;;;23.60;85.00;;;;;;6349307;22;20078;-95
2021/01/27 08:05:08;;;;;;;4.68;2.55;;;23.60;84.50;;;;;;6349739;22;19999;-94
2021/01/27 08:07:36;;;;;;;5.68;2.83;;;23.70;84.40;;;;;;6349941;22;20144;-94
2021/01/27 08:10:15;;;;;;;6.00;3.00;;;23.70;83.90;;;;;;6350054;22;19999;-93
2021/01/27 08:13:01;;;;;;;9.05;3.00;;;23.80;83.70;;;;;;6349904;22;20061;-93
2021/01/27 08:15:27;;;;;;;7.55;2.90;;;23.90;83.60;;;;;;6292214;22;20007;-93
2021/01/27 08:17:54;;;;;;;6.30;2.70;;;23.90;83.40;;;;;;6318838;22;20015;-94
2021/01/27 08:20:33;;;;;;;6.18;3.05;;;23.90;83.30;;;;;;6291309;22;20003;-93
2021/01/27 08:23:33;;;;;;;5.38;3.17;;;23.90;83.60;;;;;;6317283;22;20010;-96
2021/01/27 08:29:27;;;;;;;5.97;3.10;;;23.90;83.50;;;;;;6318053;22;20222;-96
2021/01/27 08:32:26;;;;;;;4.88;2.72;;;23.90;83.70;;;;;;6291959;22;20161;-94
2021/01/27 08:34:56;;;;;;;4.72;2.17;;;23.90;83.60;;;;;;6274265;22;20037;-93
2021/01/27 08:37:29;;;;;;;6.28;2.80;;;23.90;84.00;;;;;;6291014;22;20310;-92
2021/01/27 08:40:06;;;;;;;6.93;2.70;;;23.90;83.90;;;;;;6291088;22;20031;-93
2021/01/27 08:42:51;;;;;;;6.35;2.88;;;24.00;84.00;;;;;;6290874;22;19995;-91
2021/01/27 08:45:24;;;;;;;4.18;2.50;;;24.00;83.50;;;;;;6317000;22;20006;-89
2021/01/27 08:48:00;;;;;;;6.97;3.00;;;24.00;83.80;;;;;;6316791;22;20398;-93
2021/01/27 08:50:46;;;;;;;6.88;2.83;;;24.10;83.60;;;;;;6291630;22;20117;-94
2021/01/27 08:53:18;;;;;;;5.43;2.85;;;24.10;83.70;;;;;;6330480;22;19999;-92
2021/01/27 08:55:45;;;;;;;5.38;3.20;;;24.10;83.70;;;;;;6349053;22;20006;-94
2021/01/27 08:58:38;;;;;;;4.80;2.50;;;24.10;83.50;;;;;;6349430;22;19997;-93
2021/01/27 09:01:07;;;;;;;;;;;24.20;83.10;;;;;;6349814;22;20009;-94
2021/01/27 09:03:44;;;;;;;7.18;2.60;;;24.20;82.60;;;;;;6348975;22;19926;-93
2021/01/27 09:06:34;;;;;;;6.78;2.60;;;24.30;83.20;;;;;;6348952;22;19999;-92
2021/01/27 09:09:07;;;;;;;4.40;2.60;;;24.30;83.90;;;;;;6349785;22;19991;-93
2021/01/27 09:11:34;;;;;;;4.13;2.53;;;24.20;83.20;;;;;;6349468;22;19998;-94
2021/01/27 09:14:09;;;;;;;4.93;2.90;;;24.20;83.70;;;;;;6349042;22;20028;-93
2021/01/27 09:16:37;;;;;;;4.10;2.63;;;24.20;83.50;;;;;;6347826;22;19998;-92
2021/01/27 09:19:17;;;;;;;4.95;2.63;;;24.30;84.10;;;;;;6348906;22;20015;-93
2021/01/27 09:22:05;;;;;;;4.95;2.92;;;24.30;83.50;;;;;;6348921;22;19995;-95
2021/01/27 09:24:46;;;;;;;4.93;2.35;;;24.30;83.20;;;;;;6351222;22;20050;-95
2021/01/27 09:27:20;;;;;;;3.05;2.42;;;24.30;83.50;;;;;;6351164;22;20026;-94
2021/01/27 09:30:14;;;;;;;3.65;2.50;;;24.30;83.60;;;;;;6348709;22;20275;-92
2021/01/27 09:32:41;;;;;;;3.85;2.67;;;24.30;84.10;;;;;;6348459;22;20052;-92
2021/01/27 09:35:17;;;;;;;7.28;2.88;;;24.30;84.00;;;;;;6348688;22;20016;-94
2021/01/27 09:37:59;;;;;;;4.82;2.90;;;24.40;84.10;;;;;;6348340;22;20068;-93
2021/01/27 09:40:45;;;;;;;4.20;2.70;;;24.40;84.20;;;;;;6349054;22;20054;-93
2021/01/27 09:43:17;;;;;;;6.90;2.83;;;24.40;84.60;;;;;;6348860;22;20002;-94
2021/01/27 09:45:47;;;;;;;8.95;2.85;;;24.30;83.30;;;;;;6348767;22;19990;-93
2021/01/27 09:48:16;;;;;;;5.20;2.42;;;24.30;83.70;;;;;;6347085;22;20010;-93
2021/01/27 09:50:55;;;;;;;4.15;2.28;;;24.30;83.70;;;;;;6322699;22;19991;-93
2021/01/27 09:53:36;;;;;;;5.82;2.50;;;24.30;83.70;;;;;;6322869;22;20003;-93
2021/01/27 09:56:05;;;;;;;5.72;2.55;;;24.30;84.30;;;;;;6322229;22;20063;-93
2021/01/27 09:58:31;;;;;;;6.05;3.05;;;24.30;84.00;;;;;;6322884;22;20195;-92
2021/01/27 10:01:27;;;;;;;3.38;2.42;;;24.30;84.00;;;;;;6322358;22;20194;-92
2021/01/27 10:04:13;;;;;;;4.03;2.45;;;24.30;83.90;;;;;;6322136;22;20015;-93
2021/01/27 10:06:49;;;;;;;4.72;2.67;;;24.30;84.50;;;;;;6349979;22;19983;-92
2021/01/27 10:09:35;;;;;;;5.18;3.00;;;24.30;84.50;;;;;;6322664;22;20359;-92
2021/01/27 10:12:11;;;;;;;6.15;3.08;;;24.30;84.90;;;;;;6324047;22;20113;-92
2021/01/27 10:14:42;;;;;;;6.88;2.90;;;24.30;84.80;;;;;;6322869;22;19990;-92
2021/01/27 10:17:13;;;;;;;6.43;3.13;;;24.30;84.30;;;;;;6322558;22;19998;-93
2021/01/27 10:19:46;;;;;;;4.40;2.92;;;24.30;83.80;;;;;;6322718;22;19991;-91
2021/01/27 10:22:14;;;;;;;4.60;3.03;;;24.30;83.50;;;;;;6323036;22;20019;-91
2021/01/27 10:24:43;;;;;;;7.57;3.20;;;24.40;83.40;;;;;;6352993;22;19997;-89
2021/01/27 10:27:23;;;;;;;7.82;3.20;;;24.40;83.10;;;;;;6322678;22;20026;-93
2021/01/27 10:29:51;;;;;;;8.25;3.28;;;24.40;83.40;;;;;;6310367;22;19991;-91
2021/01/27 10:32:18;;;;;;;6.07;2.85;;;24.40;82.80;;;;;;6321283;22;20187;-92
2021/01/27 10:34:46;;;;;;;6.03;2.90;;;24.40;82.60;;;;;;6322105;22;20053;-92
2021/01/27 10:37:43;;;;;;;4.95;3.00;;;24.40;82.60;;;;;;6321878;22;19998;-92
2021/01/27 10:40:29;;;;;;;5.07;2.63;;;24.40;82.30;;;;;;6326709;22;20006;-92
2021/01/27 10:43:17;;;;;;;3.10;2.35;;;24.40;83.10;;;;;;6323720;22;20018;-92
2021/01/27 10:45:51;;;;;;;5.57;3.08;;;24.40;82.90;;;;;;6325839;22;20032;-92
2021/01/27 10:48:24;;;;;;;8.13;2.53;;;24.40;82.10;;;;;;6332372;22;20034;-93
2021/01/27 10:50:55;;;;;;;5.18;2.85;;;24.40;82.20;;;;;;6355969;22;19997;-94
2021/01/27 10:53:22;;;;;;;5.20;2.30;;;24.40;81.50;;;;;;6387245;22;19998;-95
2021/01/27 10:56:18;;;;;;;4.75;2.75;;;24.40;81.70;;;;;;6330677;22;19994;-94
2021/01/27 10:58:45;;;;;;;3.28;2.30;;;24.40;82.20;;;;;;6385808;22;20026;-93
2021/01/27 11:01:11;;;;;;;5.50;2.50;;;24.50;81.50;;;;;;6357639;22;19994;-90
2021/01/27 11:03:39;;;;;;;6.55;2.55;;;24.50;82.20;;;;;;6385484;22;20058;-89
2021/01/27 11:06:10;;;;;;;;;;;24.50;82.40;;;;;;6307707;22;20209;-90
2021/01/27 11:08:42;;;;;;;10.43;3.42;;;24.50;82.40;;;;;;6356300;22;19906;-90
2021/01/27 11:11:09;;;;;;;8.30;4.83;;;24.50;82.80;;;;;;6355197;22;20036;-89
2021/01/27 11:13:35;;;;;;;10.80;7.78;;;24.50;81.90;;;;;;6381362;22;20615;-89
2021/01/27 11:16:10;;;;;;;13.45;8.57;;;24.60;81.80;;;;;;6355860;22;20004;-91
2021/01/27 11:18:39;;;;;;;8.48;6.05;;;24.60;82.20;;;;;;6374684;22;20010;-89
2021/01/27 11:23:57;;;;;;;5.65;4.32;;;24.60;80.70;;;;;;6313093;22;20260;-93
2021/01/27 11:26:53;;;;;;;10.55;5.10;;;24.60;81.70;;;;;;6325739;22;20183;-92
2021/01/27 11:29:24;;;;;;;13.07;6.30;;;24.60;81.40;;;;;;6292860;22;20138;-93
2021/01/27 11:35:28;;;;;;;9.88;4.78;;;24.60;80.80;;;;;;6354010;22;20005;-92
2021/01/27 11:38:02;;;;;;;6.70;3.47;;;24.70;79.90;;;;;;6355234;22;19991;-93
2021/01/27 11:44:37;;;;;;;6.00;3.17;;;24.90;79.80;;;;;;6357198;22;20237;-94
2021/01/27 11:54:37;;;;;;;8.45;4.53;;;25.00;79.60;;;;;;6144292;23;20066;-92
2021/01/27 12:00:29;;;;;;;3.92;2.90;;;25.10;78.80;;;;;;6101801;23;20247;-94
2021/01/27 12:03:55;;;;;;;4.75;2.65;;;25.10;78.60;;;;;;6138422;23;20206;-94
2021/01/27 12:07:24;;;;;;;5.88;2.85;;;25.30;77.20;;;;;;6142449;23;20009;-93
2021/01/27 12:12:53;;;;;;;6.35;2.42;;;25.50;77.70;;;;;;6286270;22;20023;-91
2021/01/27 12:15:24;;;;;;;5.75;1.90;;;25.50;76.70;;;;;;6263658;22;20007;-92
2021/01/27 12:17:52;;;;;;;3.42;2.35;;;25.50;77.30;;;;;;6263420;22;20000;-94
2021/01/27 12:20:19;;;;;;;4.55;2.42;;;25.50;77.60;;;;;;6237020;22;19999;-93
2021/01/27 12:22:54;;;;;;;4.75;2.50;;;25.50;77.30;;;;;;6290766;22;20000;-93
2021/01/27 12:25:33;;;;;;;3.22;2.03;;;25.50;77.20;;;;;;6295572;22;20296;-93
2021/01/27 12:28:00;;;;;;;5.63;2.63;;;25.50;77.20;;;;;;6263913;22;20003;-93
2021/01/27 12:30:28;;;;;;;6.90;2.53;;;25.50;77.30;;;;;;6264430;22;20003;-90
2021/01/27 12:32:55;;;;;;;5.95;2.95;;;25.50;77.70;;;;;;6264527;22;20000;-91
2021/01/27 12:35:27;;;;;;;8.13;2.60;;;25.60;77.70;;;;;;6264832;22;20034;-92
2021/01/27 12:37:59;;;;;;;7.97;2.95;;;25.70;78.20;;;;;;6262696;22;20157;-92
2021/01/27 12:41:22;;;;;;;10.65;3.72;;;25.80;78.60;;;;;;6263393;22;20004;-95
2021/01/27 12:43:56;;;;;;;7.85;3.53;;;25.80;77.80;;;;;;6143536;23;20008;-91
2021/01/27 12:46:23;;;;;;;9.45;3.45;;;25.80;78.30;;;;;;6135605;23;20048;-92
2021/01/27 12:49:01;;;;;;;7.20;2.97;;;26.00;78.50;;;;;;6135774;23;20002;-91
2021/01/27 12:51:33;;;;;;;7.45;3.75;;;26.10;77.70;;;;;;6135758;23;19997;-92
2021/01/27 12:54:03;;;;;;;5.05;3.30;;;26.20;77.80;;;;;;6137750;23;20006;-92
2021/01/27 12:56:37;;;;;;;9.13;4.32;;;26.30;78.00;;;;;;6135569;23;20139;-93
2021/01/27 12:59:04;;;;;;;6.18;3.47;;;26.40;77.70;;;;;;6136353;23;20010;-91
2021/01/27 13:01:30;;;;;;;6.05;2.90;;;26.60;77.80;;;;;;6135450;23;20005;-91
2021/01/27 13:03:57;;;;;;;4.30;2.53;;;26.60;76.70;;;;;;6135744;23;20115;-90
2021/01/27 13:06:27;;;;;;;4.97;2.33;;;26.70;77.10;;;;;;6135456;23;20001;-91
2021/01/27 13:09:05;;;;;;;7.72;3.28;;;26.70;77.50;;;;;;6136773;23;20077;-93
2021/01/27 13:11:37;;;;;;;5.15;2.90;;;26.80;77.80;;;;;;6118136;23;20022;-93
2021/01/27 13:14:04;;;;;;;6.85;3.10;;;26.80;77.80;;;;;;6178979;23;20115;-93
2021/01/27 13:16:37;;;;;;;6.85;2.80;;;26.80;77.70;;;;;;6224933;23;20249;-91
2021/01/27 13:19:03;;;;;;;6.20;3.25;;;26.70;78.00;;;;;;6225438;23;20003;-93
2021/01/27 13:21:30;;;;;;;5.60;3.10;;;26.70;78.00;;;;;;6224426;23;20019;-90
2021/01/27 13:23:57;;;;;;;6.18;2.70;;;26.70;78.40;;;;;;6200283;23;19997;-88
2021/01/27 13:26:23;;;;;;;4.88;3.00;;;26.70;78.20;;;;;;6225386;23;20008;-91
2021/01/27 13:28:50;;;;;;;9.70;3.28;;;26.70;79.00;;;;;;6225823;23;20031;-91
2021/01/27 13:31:23;;;;;;;7.82;3.63;;;26.80;79.10;;;;;;6229569;23;20016;-85
2021/01/27 13:33:49;;;;;;;8.63;2.90;;;26.90;79.70;;;;;;6229928;23;20004;-88
2021/01/27 13:36:26;;;;;;;5.32;2.92;;;26.90;78.90;;;;;;6202807;23;20007;-87
2021/01/27 13:39:04;;;;;;;9.95;3.42;;;26.90;79.90;;;;;;6232428;23;19989;-91
2021/01/27 13:41:47;;;;;;;6.28;3.40;;;26.90;80.30;;;;;;6286859;22;20051;-91
2021/01/27 13:44:33;;;;;;;8.00;3.20;;;26.90;80.30;;;;;;6293282;22;20019;-88
2021/01/27 13:47:20;;;;;;;8.77;3.92;;;26.90;80.20;;;;;;6260963;22;19992;-89
2021/01/27 13:49:50;;;;;;;12.48;3.70;;;27.00;81.40;;;;;;6261006;22;20000;-86
2021/01/27 13:52:23;;;;;;;9.27;4.07;;;27.00;81.20;;;;;;6259157;22;19992;-88
2021/01/27 13:54:53;;;;;;;12.15;4.40;;;27.00;82.50;;;;;;6288652;22;20006;-92
2021/01/27 13:57:27;;;;;;;7.38;3.85;;;26.60;83.40;;;;;;6257267;22;19996;-94
2021/01/27 13:59:56;;;;;;;8.95;3.83;;;26.20;84.10;;;;;;6286615;22;19992;-92
2021/01/27 14:02:23;;;;;;;6.20;3.42;;;26.00;85.40;;;;;;6284088;22;20024;-92
2021/01/27 14:04:57;;;;;;;7.50;3.20;;;26.00;86.60;;;;;;6266320;22;20056;-92
2021/01/27 14:08:37;;;;;;;7.38;3.00;;;26.00;86.20;;;;;;6259955;22;20000;-93
2021/01/27 14:10:37;;;;;;;9.73;2.95;;;26.00;85.30;;;;;;6230778;23;20020;-86
2021/01/27 14:13:07;;;;;;;7.28;3.05;;;26.00;87.30;;;;;;6213459;23;20009;-87
2021/01/27 14:15:36;;;;;;;4.70;3.13;;;26.00;86.50;;;;;;6205245;23;19997;-88
2021/01/27 14:18:12;;;;;;;7.93;3.67;;;26.00;86.60;;;;;;6226993;23;20202;-87
2021/01/27 14:20:39;;;;;;;7.85;4.10;;;26.20;86.40;;;;;;6228787;23;19992;-86
2021/01/27 14:23:10;;;;;;;8.63;3.67;;;26.40;86.40;;;;;;6230633;23;20320;-87
2021/01/27 14:26:06;;;;;;;;;;;;;;;;;;;;;
2021/01/27 14:28:46;;;;;;;7.10;3.25;;;26.60;85.50;;;;;;6230921;23;20205;-88
2021/01/27 14:31:17;;;;;;;8.10;4.03;;;26.40;85.10;;;;;;6230400;23;19996;-87
2021/01/27 14:34:05;;;;;;;5.82;3.40;;;26.50;85.90;;;;;;6227992;23;20017;-89
2021/01/27 14:36:44;;;;;;;8.43;3.60;;;26.70;84.10;;;;;;6135417;23;20039;-92
2021/01/27 14:39:17;;;;;;;5.50;3.00;;;26.80;84.30;;;;;;6226975;23;20004;-89
2021/01/27 14:41:47;;;;;;;7.45;3.50;;;26.90;83.30;;;;;;6272829;22;20006;-90
2021/01/27 14:44:18;;;;;;;6.90;3.80;;;27.00;80.30;;;;;;6283054;22;20051;-89
2021/01/27 14:46:56;;;;;;;8.48;4.38;;;27.10;81.70;;;;;;6256762;22;20030;-90
2021/01/27 14:49:40;;;;;;;8.48;5.00;;;27.00;81.50;;;;;;6283391;22;20000;-88
2021/01/27 14:52:22;;;;;;;8.70;4.45;;;27.10;81.50;;;;;;6259337;23;20072;-89
2021/01/27 14:54:56;;;;;;;8.40;4.15;;;27.20;81.20;;;;;;6284212;22;20066;-86
2021/01/27 14:58:12;;;;;;;8.93;3.47;;;27.40;80.00;;;;;;6259824;22;20010;-87
2021/01/27 15:00:49;;;;;;;;;;;;;;;;;;;;;
2021/01/27 15:03:18;;;;;;;7.22;3.28;;;28.20;77.60;;;;;;6261367;23;20003;-87
2021/01/27 15:05:47;;;;;;;6.20;2.80;;;28.70;76.20;;;;;;6258363;22;20983;-88
2021/01/27 15:12:38;;;;;;;8.00;3.20;;;29.70;72.60;;;;;;6291869;22;20310;-93
2021/01/27 15:15:18;;;;;;;6.20;3.03;;;30.50;70.70;;;;;;6277709;22;19997;-91
2021/01/27 15:17:45;;;;;;;7.97;3.13;;;30.40;69.90;;;;;;6298662;22;20007;-91
2021/01/27 15:20:16;;;;;;;5.65;3.10;;;30.20;68.60;;;;;;6271190;22;20006;-91
2021/01/27 15:24:13;;;;;;;4.78;2.88;;;30.40;67.60;;;;;;6318612;22;20046;-93
2021/01/27 15:30:13;;;;;;;7.80;3.45;;;30.70;67.30;;;;;;6142069;23;20005;-94
2021/01/27 15:32:46;;;;;;;8.52;3.55;;;30.50;66.70;;;;;;6340680;22;20011;-91
2021/01/27 15:35:24;;;;;;;9.50;4.15;;;30.30;67.00;;;;;;6325140;22;20010;-92
2021/01/27 15:38:31;;;;;;;6.20;3.25;;;29.70;64.00;;;;;;6326725;22;20224;-91
2021/01/27 15:41:00;;;;;;;7.70;3.58;;;29.30;67.90;;;;;;6210293;23;20012;-89
2021/01/27 15:44:17;;;;;;;4.90;3.33;;;29.30;67.50;;;;;;6240560;23;20012;-91
2021/01/27 15:50:02;;;;;;;7.60;3.83;;;28.80;69.50;;;;;;6350396;22;20059;-89
2021/01/27 15:52:54;;;;;;;7.68;4.07;;;28.80;69.70;;;;;;6297601;22;20173;-91
2021/01/27 15:55:32;;;;;;;9.15;3.85;;;28.60;69.90;;;;;;6227769;23;19996;-89
2021/01/27 15:58:05;;;;;;;10.57;4.25;;;28.60;70.60;;;;;;6228681;23;20001;-88
2021/01/27 16:00:35;;;;;;;8.05;3.83;;;28.70;71.00;;;;;;6288048;22;19999;-91
2021/01/27 16:03:31;;;;;;;;;;;;;;;;;;;;;
2021/01/27 16:06:10;;;;;;;19.80;6.35;;;28.80;69.60;;;;;;6355908;22;19991;-90
2021/01/27 16:08:37;;;;;;;19.45;6.18;;;29.20;69.90;;;;;;6308363;22;19999;-90
2021/01/27 16:11:12;;;;;;;12.30;5.38;;;29.40;70.10;;;;;;6328291;22;20074;-91
2021/01/27 16:13:52;;;;;;;15.02;4.75;;;29.50;68.40;;;;;;6335643;22;19998;-92